Time;durP1;ratioP1;P1;durP2;ratioP2;P2;SDS_P1;SDS_P2;PMS_P1;PMS_P2;Temp;Humidity;BMP_temperature;BMP_pressure;BME280_temperature;BME280_humidity;BME280_pressure;Samples;Min_cycle;Max_cycle;Signal;HPM_P1;HPM_P2
2021/05/17 00:01:31;;;;;;;6.33;4.30;;;;;;;12.72;77.47;99310.34;1787693;78;26187;-72
2021/05/17 00:03:55;;;;;;;5.28;3.62;;;;;;;12.74;77.65;99313.05;1789018;78;25599;-72
2021/05/17 00:06:22;;;;;;;6.03;4.03;;;;;;;12.71;77.64;99316.06;1786673;78;25599;-72
2021/05/17 00:08:48;;;;;;;7.90;4.28;;;;;;;12.70;77.71;99309.22;1795778;78;25718;-72
2021/05/17 00:11:16;;;;;;;8.25;4.42;;;;;;;12.70;77.61;99309.22;1793215;78;25164;-72
2021/05/17 00:13:42;;;;;;;5.95;3.92;;;;;;;12.65;77.53;99308.51;1792087;78;25553;-72
2021/05/17 00:16:09;;;;;;;5.87;3.90;;;;;;;12.66;77.55;99310.14;1790414;78;25620;-71
2021/05/17 00:18:36;;;;;;;9.85;5.12;;;;;;;12.70;77.62;99308.42;1789461;78;25181;-72
2021/05/17 00:21:02;;;;;;;8.13;4.03;;;;;;;12.67;77.38;99303.08;1786707;78;26124;-72
2021/05/17 00:23:29;;;;;;;7.45;4.40;;;;;;;12.66;77.41;99311.96;1788738;78;25625;-71
2021/05/17 00:25:55;;;;;;;6.25;4.28;;;;;;;12.65;77.43;99311.64;1788102;78;25567;-71
2021/05/17 00:28:22;;;;;;;6.17;4.67;;;;;;;12.61;77.31;99306.52;1788158;78;25554;-71
2021/05/17 00:30:48;;;;;;;5.53;4.05;;;;;;;12.59;77.34;99303.29;1786863;79;25477;-72
2021/05/17 00:33:14;;;;;;;6.00;3.85;;;;;;;12.56;77.18;99301.08;1786972;78;25575;-72
2021/05/17 00:35:41;;;;;;;5.58;3.62;;;;;;;12.44;76.89;99294.35;1788105;78;26139;-71
2021/05/17 00:38:07;;;;;;;5.78;4.22;;;;;;;12.39;77.10;99294.95;1794589;78;25725;-71
2021/05/17 00:40:33;;;;;;;7.37;4.70;;;;;;;12.37;77.19;99289.61;1788676;78;25498;-71
2021/05/17 00:43:02;;;;;;;6.65;4.17;;;;;;;12.35;77.27;99289.00;1789673;78;25523;-72
2021/05/17 00:45:29;;;;;;;6.92;4.25;;;;;;;12.34;77.27;99296.56;1790289;78;25502;-71
2021/05/17 00:47:56;;;;;;;7.00;4.58;;;;;;;12.33;77.30;99300.17;1789646;78;25598;-73
2021/05/17 00:50:25;;;;;;;5.92;4.35;;;;;;;12.31;77.34;99297.78;1790398;78;26269;-73
2021/05/17 00:52:56;;;;;;;5.80;4.45;;;;;;;12.33;77.44;99304.11;1772487;79;34691;-72
2021/05/17 00:55:25;;;;;;;6.17;4.30;;;;;;;12.32;77.34;99298.06;1791651;78;25575;-72
2021/05/17 00:57:52;;;;;;;6.17;4.75;;;;;;;12.28;77.08;99300.80;1791269;78;25554;-71
2021/05/17 01:00:24;;;;;;;6.95;5.12;;;;;;;12.25;77.17;99290.73;1791112;78;25699;-74
2021/05/17 01:02:53;;;;;;;6.12;4.40;;;;;;;12.22;77.14;99300.28;1792187;78;25917;-72
2021/05/17 01:05:38;;;;;;;6.40;4.33;;;;;;;12.21;77.15;99296.86;1789955;78;25152;-72
2021/05/17 01:08:14;;;;;;;6.55;4.58;;;;;;;12.18;77.12;99309.05;1794448;78;25557;-72
2021/05/17 01:10:44;;;;;;;6.28;4.50;;;;;;;12.12;77.00;99305.94;1792819;78;25580;-72
2021/05/17 01:13:11;;;;;;;6.17;4.53;;;;;;;12.08;77.08;99307.84;1793643;78;25554;-74
2021/05/17 01:15:39;;;;;;;4.97;4.03;;;;;;;12.04;77.04;99313.99;1794230;78;25594;-72
2021/05/17 01:18:06;;;;;;;9.00;4.00;;;;;;;11.95;76.92;99314.70;1792106;78;25512;-74
2021/05/17 01:20:33;;;;;;;6.10;4.03;;;;;;;11.89;77.00;99312.05;1791819;78;25523;-72
2021/05/17 01:25:54;;;;;;;8.20;4.33;;;;;;;11.82;77.14;99309.40;1790091;78;25704;-71
2021/05/17 01:28:24;;;;;;;6.67;4.85;;;;;;;11.78;77.21;99310.31;1793850;78;25718;-72
2021/05/17 01:30:55;;;;;;;7.60;4.67;;;;;;;11.74;77.19;99304.35;1792959;78;25795;-71
2021/05/17 01:33:21;;;;;;;;;;;;;;;11.71;77.26;99308.17;1795035;78;25517;-71
2021/05/17 01:35:48;;;;;;;7.40;4.05;;;;;;;11.72;77.36;99304.54;1789757;78;35179;-71
2021/05/17 01:38:18;;;;;;;5.80;4.53;;;;;;;11.64;77.23;99312.58;1804461;77;25712;-71
2021/05/17 01:40:48;;;;;;;7.33;4.97;;;;;;;11.64;77.48;99317.80;1808346;77;25532;-71
2021/05/17 01:43:16;;;;;;;6.58;4.78;;;;;;;11.61;77.25;99318.20;1804623;77;25483;-71
2021/05/17 01:45:44;;;;;;;8.03;5.00;;;;;;;11.51;77.28;99324.31;1807409;77;26416;-72
2021/05/17 01:48:11;;;;;;;6.28;5.00;;;;;;;11.44;77.36;99328.73;1806278;77;25765;-73
2021/05/17 01:50:37;;;;;;;6.87;5.25;;;;;;;11.38;77.65;99321.16;1785254;78;25181;-71
2021/05/17 01:53:05;;;;;;;7.30;4.92;;;;;;;11.42;77.91;99323.68;1804586;78;25549;-72
2021/05/17 01:55:31;;;;;;;6.47;4.67;;;;;;;11.44;77.91;99324.80;1804924;77;25539;-71
2021/05/17 01:58:10;;;;;;;7.37;4.65;;;;;;;11.45;77.91;99325.09;1805956;77;25952;-71
2021/05/17 02:00:42;;;;;;;9.00;5.05;;;;;;;11.47;77.94;99322.59;1806075;78;25141;-72
2021/05/17 02:03:09;;;;;;;7.58;5.00;;;;;;;11.47;77.85;99323.11;1805652;77;25589;-72
2021/05/17 02:05:36;;;;;;;6.50;5.10;;;;;;;11.41;77.84;99327.31;1804864;77;25473;-72
2021/05/17 02:08:04;;;;;;;8.63;5.67;;;;;;;11.36;77.83;99326.28;1807435;77;25823;-73
2021/05/17 02:10:32;;;;;;;7.50;5.62;;;;;;;11.36;78.04;99331.02;1806127;77;25615;-74
2021/05/17 02:12:59;;;;;;;7.87;5.78;;;;;;;11.39;78.08;99324.58;1807338;77;26475;-74
2021/05/17 02:15:26;;;;;;;7.22;5.62;;;;;;;11.39;77.97;99326.69;1805370;77;25583;-73
2021/05/17 02:18:05;;;;;;;7.12;6.00;;;;;;;11.34;77.94;99329.88;1806097;77;26270;-73
2021/05/17 02:20:36;;;;;;;9.83;6.35;;;;;;;11.28;78.00;99333.29;1802019;77;25705;-74
2021/05/17 02:23:04;;;;;;;6.85;5.62;;;;;;;11.26;78.20;99333.17;1806192;77;25942;-73
2021/05/17 02:25:31;;;;;;;7.65;5.85;;;;;;;11.19;78.09;99331.85;1803845;77;25635;-74
2021/05/17 02:28:00;;;;;;;8.23;6.53;;;;;;;11.18;78.25;99333.34;1808587;77;26504;-75
2021/05/17 02:30:27;;;;;;;12.00;7.08;;;;;;;11.15;78.25;99338.96;1804972;77;25635;-74
2021/05/17 02:32:55;;;;;;;9.10;6.80;;;;;;;11.13;78.42;99341.79;1805027;77;25255;-73
2021/05/17 02:35:29;;;;;;;8.63;6.08;;;;;;;11.16;78.58;99341.40;1802636;77;25589;-74
2021/05/17 02:37:55;;;;;;;9.98;6.50;;;;;;;11.13;78.47;99347.50;1799362;77;26162;-73
2021/05/17 02:40:23;;;;;;;11.05;6.90;;;;;;;11.05;78.44;99337.52;1800841;77;25557;-74
2021/05/17 02:42:50;;;;;;;9.45;6.17;;;;;;;11.01;78.55;99339.39;1798055;78;25641;-73
2021/05/17 02:45:21;;;;;;;8.85;7.17;;;;;;;10.97;78.67;99341.59;1798244;77;25583;-73
2021/05/17 02:47:47;;;;;;;9.38;7.08;;;;;;;10.95;78.67;99344.09;1799009;77;25673;-73
2021/05/17 02:50:16;;;;;;;9.10;6.80;;;;;;;10.96;78.96;99343.09;1798406;78;25513;-72
2021/05/17 02:52:45;;;;;;;9.30;7.42;;;;;;;10.95;78.89;99338.87;1798802;77;25609;-72
2021/05/17 02:55:16;;;;;;;9.35;6.67;;;;;;;10.97;79.08;99340.80;1796689;77;25586;-72
2021/05/17 02:57:55;;;;;;;8.63;6.95;;;;;;;10.97;78.97;99346.83;1802916;77;25741;-72
2021/05/17 03:00:23;;;;;;;11.95;7.58;;;;;;;10.98;79.22;99341.89;1798538;77;26027;-72
2021/05/17 03:03:11;;;;;;;13.28;7.28;;;;;;;11.02;79.30;99336.60;1795520;77;25634;-72
2021/05/17 03:05:44;;;;;;;10.53;7.10;;;;;;;11.03;79.34;99340.02;1798202;78;26211;-72
2021/05/17 03:08:14;;;;;;;;;;;;;;;11.02;79.33;99340.52;1802451;77;25631;-74
2021/05/17 03:10:43;;;;;;;9.23;6.62;;;;;;;11.03;79.31;99342.63;1773886;78;25586;-72
2021/05/17 03:13:18;;;;;;;9.35;7.40;;;;;;;10.96;79.26;99341.27;1798729;77;25641;-73
2021/05/17 03:15:46;;;;;;;10.38;7.10;;;;;;;10.91;79.47;99343.66;1767718;78;25604;-73
2021/05/17 03:18:13;;;;;;;7.97;6.72;;;;;;;10.88;79.60;99348.80;1800332;77;25656;-74
2021/05/17 03:20:40;;;;;;;12.18;7.17;;;;;;;10.91;79.78;99352.80;1798488;77;25632;-74
2021/05/17 03:23:11;;;;;;;9.50;7.17;;;;;;;10.92;79.87;99353.63;1798137;77;25516;-73
2021/05/17 03:25:39;;;;;;;10.63;7.92;;;;;;;10.95;79.98;99354.55;1798234;78;25592;-72
2021/05/17 03:28:05;;;;;;;12.45;8.00;;;;;;;10.94;80.09;99354.23;1799430;77;25544;-72
2021/05/17 03:30:31;;;;;;;8.40;6.70;;;;;;;10.92;80.19;99360.17;1797455;78;25588;-73
2021/05/17 03:32:57;;;;;;;10.93;7.87;;;;;;;10.96;80.43;99361.39;1798409;77;25585;-74
2021/05/17 03:35:23;;;;;;;9.97;7.93;;;;;;;10.99;80.55;99358.38;1795892;77;31107;-73
2021/05/17 03:37:49;;;;;;;13.40;7.77;;;;;;;11.04;80.64;99360.73;1791139;78;27367;-74
2021/05/17 03:40:18;;;;;;;10.30;7.75;;;;;;;11.05;80.71;99353.20;1780004;78;26624;-74
2021/05/17 03:42:45;;;;;;;13.20;7.92;;;;;;;11.08;80.77;99354.63;1782769;79;25519;-73
2021/05/17 03:45:13;;;;;;;12.25;7.75;;;;;;;11.13;80.89;99354.86;1755640;79;27096;-74
2021/05/17 03:47:39;;;;;;;12.20;8.60;;;;;;;11.17;81.01;99354.77;1783318;78;25569;-72
2021/05/17 03:50:09;;;;;;;11.97;8.88;;;;;;;11.16;81.09;99359.70;1782206;78;25611;-72
2021/05/17 03:52:35;;;;;;;17.92;9.23;;;;;;;11.18;81.20;99355.06;1782702;78;25408;-72
2021/05/17 03:55:01;;;;;;;10.60;7.72;;;;;;;11.21;81.28;99359.10;1781290;79;32218;-72
2021/05/17 03:57:27;;;;;;;11.50;8.83;;;;;;;11.25;81.46;99360.34;1782017;79;25640;-72
2021/05/17 03:59:53;;;;;;;11.40;8.90;;;;;;;11.28;81.49;99356.03;1779458;79;25585;-72
2021/05/17 04:02:21;;;;;;;9.35;7.58;;;;;;;11.34;81.58;99359.97;1779614;79;26349;-72
2021/05/17 04:14:54;;;;;;;12.43;9.53;;;;;;;11.48;82.18;99356.91;1781363;79;26157;-71
2021/05/17 04:17:20;;;;;;;11.28;9.10;;;;;;;11.54;82.23;99352.22;1781801;79;34744;-71
2021/05/17 04:19:46;;;;;;;11.95;9.50;;;;;;;11.60;82.33;99357.17;1784106;79;32165;-72
2021/05/17 04:22:12;;;;;;;12.93;9.40;;;;;;;11.65;82.41;99358.70;1780759;79;25995;-71
2021/05/17 04:24:37;;;;;;;12.73;9.27;;;;;;;11.67;82.42;99357.98;1781850;79;30039;-71
2021/05/17 04:27:04;;;;;;;13.37;9.67;;;;;;;11.69;82.60;99364.34;1777406;78;25570;-71
2021/05/17 04:29:30;;;;;;;11.70;9.58;;;;;;;11.76;82.73;99370.41;1780697;78;25611;-72
2021/05/17 04:31:55;;;;;;;14.58;11.00;;;;;;;11.82;82.88;99368.81;1783817;78;32256;-71
2021/05/17 04:34:21;;;;;;;14.57;10.03;;;;;;;11.86;82.88;99370.86;1782265;79;26081;-71
2021/05/17 04:36:47;;;;;;;13.73;9.47;;;;;;;11.93;82.87;99362.52;1780405;79;32330;-72
2021/05/17 04:39:13;;;;;;;12.97;10.30;;;;;;;12.02;82.92;99359.72;1788063;78;30889;-71
2021/05/17 04:41:39;;;;;;;11.63;9.63;;;;;;;12.08;82.83;99368.88;1787534;78;34600;-72
2021/05/17 04:44:05;;;;;;;11.90;10.08;;;;;;;12.15;82.86;99373.64;1788907;78;32317;-71
2021/05/17 04:46:31;;;;;;;12.10;10.05;;;;;;;12.20;82.95;99374.36;1787441;78;26605;-71
2021/05/17 04:48:57;;;;;;;10.80;9.53;;;;;;;12.27;83.05;99373.05;1787578;78;31885;-71
2021/05/17 04:51:24;;;;;;;13.17;9.20;;;;;;;12.29;83.08;99374.45;1787365;78;31230;-71
2021/05/17 04:53:51;;;;;;;12.23;10.20;;;;;;;12.33;83.30;99375.69;1787812;78;26139;-72
2021/05/17 04:56:17;;;;;;;11.40;9.50;;;;;;;12.42;83.34;99376.29;1785300;78;26161;-71
2021/05/17 04:58:43;;;;;;;11.28;9.30;;;;;;;12.52;83.26;99384.56;1787638;78;26298;-71
2021/05/17 05:01:09;;;;;;;15.43;10.13;;;;;;;12.57;82.98;99376.87;1785081;78;33001;-72
2021/05/17 05:03:35;;;;;;;11.70;10.13;;;;;;;12.61;82.87;99382.55;1784577;78;25303;-72
2021/05/17 05:06:02;;;;;;;13.62;9.40;;;;;;;12.66;82.69;99379.61;1787626;78;34807;-72
2021/05/17 05:08:28;;;;;;;12.50;10.15;;;;;;;12.71;82.53;99372.94;1785878;78;25598;-72
2021/05/17 05:10:55;;;;;;;13.18;10.48;;;;;;;12.76;82.47;99378.38;1787683;78;25504;-72
2021/05/17 05:13:21;;;;;;;13.70;10.88;;;;;;;12.80;82.34;99376.98;1786102;78;25439;-71
2021/05/17 05:15:54;;;;;;;13.93;11.28;;;;;;;12.82;82.25;99377.08;1791386;78;25600;-73
2021/05/17 05:18:20;;;;;;;13.83;11.00;;;;;;;12.82;82.11;99378.88;1781824;78;25539;-72
2021/05/17 05:20:47;;;;;;;12.73;10.75;;;;;;;12.93;83.30;99377.45;1783606;78;25587;-72
2021/05/17 05:23:15;;;;;;;12.50;10.88;;;;;;;13.05;82.54;99372.69;1783710;78;25604;-72
2021/05/17 05:28:18;;;;;;;13.50;10.65;;;;;;;13.04;82.23;99370.27;1784682;78;26449;-72
2021/05/17 05:33:15;;;;;;;15.05;10.20;;;;;;;13.07;82.26;99380.38;1783864;78;25737;-72
2021/05/17 05:35:36;;;;;;;15.13;11.33;;;;;;;13.09;82.08;99382.26;1781501;78;26544;-73
2021/05/17 05:38:02;;;;;;;19.65;11.78;;;;;;;13.08;82.24;99380.15;1790268;78;32615;-72
2021/05/17 05:40:28;;;;;;;13.73;11.80;;;;;;;13.15;82.35;99372.28;1799643;78;29399;-73
2021/05/17 05:42:54;;;;;;;15.38;12.05;;;;;;;13.21;82.29;99368.02;1801241;77;35191;-74
2021/05/17 05:45:20;;;;;;;14.95;12.13;;;;;;;13.29;82.35;99363.38;1802670;77;33766;-74
2021/05/17 05:47:46;;;;;;;15.13;11.80;;;;;;;13.36;82.36;99359.91;1804019;77;25666;-72
2021/05/17 05:50:12;;;;;;;15.20;11.38;;;;;;;13.42;82.26;99363.84;1799112;77;31770;-72
2021/05/17 05:52:38;;;;;;;16.62;12.53;;;;;;;13.47;82.29;99360.06;1801251;77;25465;-72
2021/05/17 05:55:06;;;;;;;14.87;12.03;;;;;;;13.55;82.40;99352.46;1801369;77;34722;-72
2021/05/17 05:57:40;;;;;;;18.75;12.65;;;;;;;13.63;82.32;99354.84;1801132;78;25861;-72
2021/05/17 06:00:01;;;;;;;14.95;11.40;;;;;;;13.68;82.20;99348.97;1799747;77;26243;-75
2021/05/17 06:02:26;;;;;;;14.87;10.90;;;;;;;13.73;82.16;99353.09;1800395;77;32726;-72
2021/05/17 06:04:52;;;;;;;13.58;11.20;;;;;;;13.79;82.32;99348.30;1797413;78;30086;-72
2021/05/17 06:07:18;;;;;;;14.10;12.30;;;;;;;13.87;82.35;99349.88;1795742;78;34641;-72
2021/05/17 06:09:44;;;;;;;13.48;11.10;;;;;;;13.96;82.27;99355.17;1801305;77;32338;-72
2021/05/17 06:12:11;;;;;;;13.60;10.90;;;;;;;14.08;82.21;99347.44;1798576;78;26156;-72
2021/05/17 06:14:37;;;;;;;16.93;11.03;;;;;;;14.18;82.08;99356.94;1800038;77;25698;-72
2021/05/17 06:17:04;;;;;;;14.25;11.18;;;;;;;14.26;81.86;99355.36;1795635;77;25413;-72
2021/05/17 06:19:30;;;;;;;13.93;10.88;;;;;;;14.31;81.61;99354.73;1795651;77;25219;-72
2021/05/17 06:21:57;;;;;;;16.93;11.83;;;;;;;14.37;81.64;99353.35;1795439;78;25423;-71
2021/05/17 06:24:23;;;;;;;16.60;12.28;;;;;;;14.47;81.47;99350.77;1796499;78;25681;-72
2021/05/17 06:26:50;;;;;;;13.90;11.97;;;;;;;14.52;81.29;99360.14;1796550;78;25543;-72
2021/05/17 06:29:16;;;;;;;20.15;13.22;;;;;;;14.52;81.00;99351.77;1799181;77;25585;-72
2021/05/17 06:31:48;;;;;;;16.05;12.85;;;;;;;14.54;81.06;99352.36;1796137;77;25547;-72
2021/05/17 06:34:14;;;;;;;15.63;12.78;;;;;;;14.59;80.95;99355.64;1798278;77;25516;-72
2021/05/17 06:36:41;;;;;;;13.70;12.15;;;;;;;14.63;80.74;99343.68;1795110;78;26466;-70
2021/05/17 06:39:09;;;;;;;16.90;13.40;;;;;;;14.68;80.73;99354.84;1799537;77;26128;-71
2021/05/17 06:41:37;;;;;;;18.45;12.88;;;;;;;14.72;80.73;99356.84;1800613;77;25247;-72
2021/05/17 06:44:04;;;;;;;16.15;13.03;;;;;;;14.78;80.90;99352.02;1772336;78;25682;-73
2021/05/17 06:46:32;;;;;;;14.85;12.85;;;;;;;14.87;80.84;99345.98;1798620;77;25485;-73
2021/05/17 06:48:58;;;;;;;18.80;14.45;;;;;;;14.94;80.70;99343.27;1798762;78;25567;-72
2021/05/17 06:51:25;;;;;;;16.67;12.00;;;;;;;14.98;80.50;99346.58;1799182;78;26241;-75
2021/05/17 06:53:56;;;;;;;16.15;13.05;;;;;;;15.06;80.61;99348.92;1798785;78;25540;-74
2021/05/17 06:58:58;;;;;;;15.08;13.00;;;;;;;15.14;80.34;99345.68;1799866;78;25200;-73
2021/05/17 07:01:29;;;;;;;15.68;12.70;;;;;;;15.22;80.29;99343.58;1798554;78;25585;-72
2021/05/17 07:03:56;;;;;;;15.80;12.95;;;;;;;15.31;80.22;99335.66;1799020;78;25569;-72
2021/05/17 07:06:25;;;;;;;15.58;12.58;;;;;;;15.43;80.24;99337.55;1800209;78;25690;-72
2021/05/17 07:14:10;;;;;;;12.82;9.90;;;;;;;15.69;79.51;99329.34;1800468;78;25650;-74
2021/05/17 07:16:36;;;;;;;15.28;10.68;;;;;;;15.80;79.29;99334.36;1773352;78;32802;-74
2021/05/17 07:19:02;;;;;;;14.40;10.25;;;;;;;15.88;78.88;99337.20;1796071;77;25650;-74
2021/05/17 07:24:13;;;;;;;13.80;11.57;;;;;;;15.99;78.53;99321.92;1797653;77;25551;-74
2021/05/17 07:26:39;;;;;;;13.93;11.18;;;;;;;16.11;78.71;99315.34;1796057;77;25652;-74
2021/05/17 07:29:07;;;;;;;15.45;11.18;;;;;;;16.23;78.34;99324.58;1798251;78;33410;-73
2021/05/17 07:31:33;;;;;;;13.22;10.25;;;;;;;16.28;77.94;99325.51;1796530;77;26359;-73
2021/05/17 07:33:59;;;;;;;14.45;10.30;;;;;;;16.37;78.05;99329.95;1795594;78;34682;-73
2021/05/17 07:36:25;;;;;;;12.98;10.75;;;;;;;16.52;77.82;99320.26;1797318;77;25913;-73
2021/05/17 07:38:52;;;;;;;13.83;9.80;;;;;;;16.59;77.59;99316.48;1795772;78;26092;-73
2021/05/17 07:41:19;;;;;;;14.05;9.30;;;;;;;16.70;77.22;99322.78;1770797;78;25879;-72
2021/05/17 07:43:47;;;;;;;16.42;10.28;;;;;;;16.78;77.50;99329.58;1798247;77;26518;-72
2021/05/17 07:46:13;;;;;;;12.50;10.32;;;;;;;16.93;77.31;99326.45;1796170;78;25405;-73
2021/05/17 07:51:25;;;;;;;10.45;8.95;;;;;;;17.09;76.53;99313.85;1801113;77;25830;-71
2021/05/17 07:53:52;;;;;;;13.68;10.05;;;;;;;17.16;76.27;99321.14;1801039;77;32764;-72
2021/05/17 07:56:18;;;;;;;14.20;9.10;;;;;;;17.26;76.72;99323.95;1798906;77;25895;-73
2021/05/17 07:58:44;;;;;;;11.10;8.25;;;;;;;17.36;75.72;99327.33;1800138;77;34669;-72
2021/05/17 08:01:13;;;;;;;9.98;7.78;;;;;;;17.38;74.52;99325.76;1798855;77;25599;-72
2021/05/17 08:03:39;;;;;;;12.20;7.30;;;;;;;17.40;74.46;99325.02;1798838;77;25757;-71
2021/05/17 08:06:07;;;;;;;14.18;7.85;;;;;;;17.47;74.87;99321.20;1800693;77;33170;-72
2021/05/17 08:08:34;;;;;;;14.30;7.85;;;;;;;17.60;75.14;99319.33;1798893;77;25500;-72
2021/05/17 08:11:01;;;;;;;11.03;7.80;;;;;;;17.74;74.91;99320.63;1796128;77;26516;-72
2021/05/17 08:13:27;;;;;;;9.73;7.53;;;;;;;17.86;74.07;99317.42;1797320;78;25603;-72
2021/05/17 08:15:54;;;;;;;11.70;7.92;;;;;;;17.92;73.47;99323.09;1797405;77;26414;-72
2021/05/17 08:18:20;;;;;;;9.93;7.30;;;;;;;17.96;73.34;99320.25;1797155;77;25545;-72
2021/05/17 08:20:46;;;;;;;9.85;6.15;;;;;;;18.09;72.76;99317.02;1798018;78;31294;-72
2021/05/17 08:23:15;;;;;;;13.65;6.87;;;;;;;18.10;72.41;99307.51;1798290;77;34628;-72
2021/05/17 08:25:40;;;;;;;12.30;6.83;;;;;;;18.19;72.02;99311.88;1797939;78;25584;-71
2021/05/17 08:28:06;;;;;;;13.08;7.45;;;;;;;18.24;71.45;99313.28;1798392;77;25567;-72
2021/05/17 08:30:41;;;;;;;9.95;5.42;;;;;;;18.22;70.17;99309.27;1797635;77;26389;-72
2021/05/17 08:33:00;;;;;;;6.75;4.53;;;;;;;18.18;69.98;99311.08;1794486;78;25814;-72
2021/05/17 08:35:26;;;;;;;8.68;5.42;;;;;;;18.19;68.28;99306.58;1799808;78;34708;-71
2021/05/17 08:37:51;;;;;;;6.60;4.55;;;;;;;18.24;68.53;99307.98;1798649;77;33492;-72
2021/05/17 08:40:17;;;;;;;10.30;6.22;;;;;;;18.30;67.80;99306.22;1798203;77;25990;-72
2021/05/17 08:42:43;;;;;;;4.45;3.15;;;;;;;18.39;67.84;99306.11;1800143;77;33286;-71
2021/05/17 08:45:10;;;;;;;6.62;4.08;;;;;;;18.45;66.43;99305.14;1796591;77;31240;-71
2021/05/17 08:47:37;;;;;;;11.75;6.03;;;;;;;18.43;65.90;99297.16;1797082;77;25551;-71
2021/05/17 08:50:05;;;;;;;7.25;3.30;;;;;;;18.48;67.20;99305.17;1799716;77;25786;-72
2021/05/17 08:52:32;;;;;;;5.50;2.98;;;;;;;18.55;65.33;99297.84;1800943;77;25732;-72
2021/05/17 08:54:58;;;;;;;10.40;3.98;;;;;;;18.58;64.89;99294.22;1800289;77;25608;-71
2021/05/17 08:57:24;;;;;;;5.17;3.70;;;;;;;18.61;64.44;99290.28;1798961;77;25866;-72
2021/05/17 08:59:50;;;;;;;6.35;3.40;;;;;;;18.62;64.40;99295.31;1797282;78;34763;-71
2021/05/17 09:02:18;;;;;;;6.03;3.17;;;;;;;18.68;63.70;99299.36;1799429;77;25678;-72
2021/05/17 09:05:15;;;;;;;5.47;2.72;;;;;;;18.74;63.65;99299.23;1800563;77;26372;-73
2021/05/17 09:07:48;;;;;;;6.80;3.50;;;;;;;18.80;63.71;99302.21;1791511;77;25541;-73
2021/05/17 09:10:25;;;;;;;6.30;3.65;;;;;;;18.93;63.07;99306.86;1798312;77;25555;-73
2021/05/17 09:13:07;;;;;;;6.17;3.25;;;;;;;18.93;62.47;99292.29;1798361;77;25620;-72
2021/05/17 09:15:47;;;;;;;6.30;3.40;;;;;;;18.96;61.81;99284.67;1798682;77;25572;-73
2021/05/17 09:18:18;;;;;;;7.15;3.72;;;;;;;18.98;62.62;99276.47;1800746;77;25552;-73
2021/05/17 09:20:47;;;;;;;5.33;3.50;;;;;;;19.02;61.96;99273.09;1798722;77;25670;-72
2021/05/17 09:23:28;;;;;;;6.67;3.47;;;;;;;19.06;62.58;99274.18;1799903;77;25574;-71
2021/05/17 09:26:14;;;;;;;5.55;3.35;;;;;;;19.10;61.24;99270.53;1798371;78;25562;-71
2021/05/17 09:28:48;;;;;;;6.35;3.20;;;;;;;19.15;61.21;99277.22;1795160;78;25613;-72
2021/05/17 09:31:21;;;;;;;6.25;3.00;;;;;;;19.24;61.38;99274.92;1803840;77;25902;-72
2021/05/17 09:33:58;;;;;;;5.37;2.58;;;;;;;19.43;62.14;99271.41;1808637;78;25132;-72
2021/05/17 09:36:37;;;;;;;4.17;2.47;;;;;;;19.62;61.19;99271.86;1811860;78;25578;-72
2021/05/17 09:39:07;;;;;;;6.12;3.05;;;;;;;19.71;60.64;99271.70;1810505;78;25522;-73
2021/05/17 09:41:42;;;;;;;3.10;2.15;;;;;;;19.80;59.69;99273.36;1807459;78;25578;-72
2021/05/17 09:44:13;;;;;;;5.58;2.52;;;;;;;19.71;58.31;99272.49;1810935;78;25565;-72
2021/05/17 09:47:05;;;;;;;5.28;2.67;;;;;;;19.72;58.97;99276.77;1804102;78;26215;-72
2021/05/17 09:49:49;;;;;;;4.72;2.50;;;;;;;19.83;57.13;99267.55;1798897;77;25208;-70
2021/05/17 09:52:25;;;;;;;5.95;3.00;;;;;;;19.83;58.59;99274.97;1798092;78;25518;-70
2021/05/17 09:54:59;;;;;;;5.12;2.30;;;;;;;19.96;58.31;99274.55;1796663;78;25495;-71
2021/05/17 09:57:33;;;;;;;5.87;2.50;;;;;;;20.02;58.12;99271.41;1798421;77;25499;-71
2021/05/17 10:00:12;;;;;;;5.03;2.52;;;;;;;20.08;57.64;99266.94;1799049;78;25483;-71
2021/05/17 10:02:54;;;;;;;4.22;2.47;;;;;;;20.09;56.59;99268.02;1794232;78;26508;-71
2021/05/17 10:05:34;;;;;;;4.40;2.37;;;;;;;20.20;57.03;99275.53;1797148;78;25613;-72
2021/05/17 10:08:03;;;;;;;5.43;2.70;;;;;;;20.30;56.88;99270.83;1796526;78;25735;-72
2021/05/17 10:10:31;;;;;;;5.70;2.45;;;;;;;20.35;56.77;99269.01;1795970;78;25892;-71
2021/05/17 10:13:00;;;;;;;7.70;2.58;;;;;;;20.45;56.26;99267.45;1795254;78;26556;-73
2021/05/17 10:15:29;;;;;;;5.10;2.60;;;;;;;20.54;56.24;99262.77;1796163;78;25598;-73
2021/05/17 10:17:58;;;;;;;8.48;2.25;;;;;;;20.50;55.68;99261.64;1795303;78;25762;-72
2021/05/17 10:20:24;;;;;;;7.00;3.02;;;;;;;20.35;55.10;99261.55;1796941;78;25712;-71
2021/05/17 10:22:52;;;;;;;8.08;4.72;;;;;;;20.14;55.26;99254.00;1796958;77;25585;-71
2021/05/17 10:25:34;;;;;;;4.37;2.62;;;;;;;20.23;56.48;99257.77;1796192;77;25223;-72
2021/05/17 10:28:10;;;;;;;7.12;3.67;;;;;;;20.37;56.39;99249.62;1795839;77;25527;-71
2021/05/17 10:30:37;;;;;;;8.03;4.12;;;;;;;20.47;55.67;99245.44;1796498;77;25578;-71
2021/05/17 10:33:06;;;;;;;7.95;2.77;;;;;;;20.60;55.95;99241.03;1799568;77;25164;-72
2021/05/17 10:35:43;;;;;;;7.72;5.30;;;;;;;20.74;54.57;99243.48;1799252;77;25656;-72
2021/05/17 10:38:40;;;;;;;8.28;3.10;;;;;;;20.78;54.96;99247.73;1798815;77;25535;-71
2021/05/17 10:41:22;;;;;;;10.90;8.55;;;;;;;20.77;54.36;99246.94;1792463;77;25590;-71
2021/05/17 10:46:53;;;;;;;11.63;3.37;;;;;;;20.71;54.64;99244.00;1795451;78;25578;-72
2021/05/17 10:49:37;;;;;;;3.87;2.10;;;;;;;20.67;53.71;99234.94;1798801;78;25638;-72
2021/05/17 10:52:11;;;;;;;4.78;2.58;;;;;;;20.71;54.28;99229.93;1796163;78;25604;-72
2021/05/17 10:54:42;;;;;;;5.58;2.40;;;;;;;20.87;53.17;99223.62;1800988;78;26226;-74
2021/05/17 10:57:34;;;;;;;6.83;2.42;;;;;;;20.90;52.85;99215.63;1795825;77;25199;-72
2021/05/17 11:02:43;;;;;;;5.78;2.83;;;;;;;21.05;52.19;99224.44;1798862;78;25622;-73
2021/05/17 11:05:21;;;;;;;7.92;3.67;;;;;;;20.95;52.25;99235.57;1798050;77;25505;-73
2021/05/17 11:07:54;;;;;;;5.47;3.00;;;;;;;20.92;52.53;99236.09;1799006;78;25567;-72
2021/05/17 11:10:41;;;;;;;4.75;2.47;;;;;;;20.94;52.30;99230.00;1797768;77;25634;-72
2021/05/17 11:13:22;;;;;;;7.47;4.90;;;;;;;21.00;52.58;99230.28;1800079;77;25533;-73
2021/05/17 11:16:05;;;;;;;7.87;5.22;;;;;;;20.98;52.35;99220.43;1796700;77;26338;-73
2021/05/17 11:18:51;;;;;;;5.22;2.92;;;;;;;20.97;52.03;99226.81;1798148;77;25789;-72
2021/05/17 11:21:26;;;;;;;5.85;2.95;;;;;;;20.81;50.74;99224.63;1799927;77;26443;-71
2021/05/17 11:23:58;;;;;;;5.37;2.90;;;;;;;20.68;51.18;99230.42;1799329;78;25531;-71
2021/05/17 11:26:27;;;;;;;5.00;2.85;;;;;;;20.59;51.28;99225.61;1798206;77;26199;-73
2021/05/17 11:28:56;;;;;;;11.75;3.55;;;;;;;20.58;52.01;99226.67;1800031;77;25515;-73
2021/05/17 11:31:30;;;;;;;5.67;2.83;;;;;;;20.57;51.82;99224.27;1798654;77;25727;-72
2021/05/17 11:34:06;;;;;;;9.85;2.55;;;;;;;20.52;51.52;99221.05;1798532;78;25591;-72
2021/05/17 11:36:38;;;;;;;5.70;3.10;;;;;;;20.47;51.29;99222.87;1798871;77;25576;-71
2021/05/17 11:39:24;;;;;;;8.40;4.87;;;;;;;20.35;51.64;99221.23;1798444;78;25165;-71
2021/05/17 11:42:09;;;;;;;10.78;4.90;;;;;;;20.31;52.35;99224.65;1797385;77;25562;-72
2021/05/17 11:44:55;;;;;;;7.30;3.37;;;;;;;20.32;52.76;99227.03;1800226;77;26083;-72
2021/05/17 11:47:24;;;;;;;5.80;3.22;;;;;;;20.36;52.17;99229.98;1800126;77;25571;-71
2021/05/17 11:49:52;;;;;;;5.10;2.62;;;;;;;20.33;52.37;99229.18;1796540;77;32258;-71
2021/05/17 11:52:25;;;;;;;4.00;2.72;;;;;;;20.35;52.51;99221.23;1800416;77;25458;-72
2021/05/17 11:54:57;;;;;;;3.20;2.10;;;;;;;20.41;52.14;99226.04;1798608;77;25602;-72
2021/05/17 11:57:34;;;;;;;6.22;2.85;;;;;;;20.38;51.64;99234.52;1798840;77;25651;-72
2021/05/17 12:00:13;;;;;;;5.65;3.15;;;;;;;20.30;51.92;99231.81;1796953;77;25549;-72
2021/05/17 12:02:46;;;;;;;6.87;2.58;;;;;;;20.20;51.90;99229.63;1797667;77;25596;-73
2021/05/17 12:05:13;;;;;;;4.97;2.50;;;;;;;20.15;51.35;99228.52;1798320;77;25546;-72
2021/05/17 12:07:46;;;;;;;5.97;2.83;;;;;;;20.08;51.68;99233.78;1797046;77;25616;-73
2021/05/17 12:10:17;;;;;;;4.90;2.72;;;;;;;20.06;51.73;99234.58;1767707;77;25627;-72
2021/05/17 12:12:44;;;;;;;4.87;2.70;;;;;;;20.01;51.88;99237.20;1798239;78;25641;-71
2021/05/17 12:15:20;;;;;;;5.20;2.72;;;;;;;19.98;52.03;99231.87;1799703;77;25613;-71
2021/05/17 12:17:46;;;;;;;9.48;2.67;;;;;;;20.03;52.27;99226.61;1799300;77;26251;-71